»·PEaware :: N614FT KPHX-P20

N614FT :: KPHX-P20

FLIGHT INFORMATION

Flight Status: Arrived
Operator: Privately registered:
United States
More flights under this callsign
Pilot: Carlos A. (16805)
Aircraft: PIPER PA-31/31P NAVAJO CHIEFTAIN
(PA31)
More flights by this aircraft type
Origin: KPHX Phoenix Sky Harbor Intl
United States
Destination: P20 Avi Suquilla
United States
More flights between these airports :: More routes between these airports
Route: BXK
File this flight plan on PilotEdge
Remarks: Arizona Alphabet Challenge
Altitude:
(Current/Filed)
6,500ft
Speed:
(Current/Filed)
180kts
Departed: 17-Sep-23 08:08 PM
Arrived: 17-Sep-23 09:04 PM
Distance/Time
Traveled:
139nm/0:56
Distance/Time
To Go:
Arrived

Flight Plot

Page will automatically refresh every two minutes.

Flight plan parsing failed; only flown route is shown


Map Options




Map Legend


Flown Route
Filed Route
Departure Airport
Arrival Airport
Navaid (VOR, NDB)
Fix

Horizontal Profiles

Position Reports

Time Latitude Longitude Heading Altitude Ground
Speed
17-Sep-23 19:31 33.433490 -112.014384 80 1139ft 0kts
17-Sep-23 19:32 33.433490 -112.014383 80 1139ft 0kts
17-Sep-23 19:33 33.433490 -112.014382 80 1139ft 0kts
17-Sep-23 19:34 33.433490 -112.014380 80 1139ft 0kts
17-Sep-23 19:35 33.433491 -112.014378 80 1139ft 0kts
17-Sep-23 19:36 33.433491 -112.014377 80 1139ft 0kts
17-Sep-23 19:37 33.433491 -112.014375 80 1139ft 0kts
17-Sep-23 19:38 33.433491 -112.014373 80 1139ft 0kts
17-Sep-23 19:39 33.433492 -112.014372 80 1139ft 0kts
17-Sep-23 19:40 33.433492 -112.014370 80 1139ft 0kts
17-Sep-23 19:41 33.433492 -112.014368 80 1139ft 0kts
17-Sep-23 19:42 33.433492 -112.014367 80 1139ft 0kts
17-Sep-23 19:43 33.433492 -112.014365 80 1139ft 0kts
17-Sep-23 19:44 33.433493 -112.014364 80 1139ft 0kts
17-Sep-23 19:45 33.433499 -112.014310 81 1139ft 0kts
17-Sep-23 19:46 33.433395 -112.014216 185 1139ft 0kts
17-Sep-23 19:47 33.433387 -112.014217 185 1139ft 0kts
17-Sep-23 19:48 33.433377 -112.014218 185 1139ft 0kts
17-Sep-23 19:49 33.433369 -112.014219 185 1139ft 0kts
17-Sep-23 19:50 33.433367 -112.014219 185 1139ft 0kts
17-Sep-23 19:51 33.433363 -112.014219 185 1139ft 0kts
17-Sep-23 19:52 33.433360 -112.014220 185 1139ft 0kts
17-Sep-23 19:53 33.433357 -112.014220 185 1139ft 0kts
17-Sep-23 19:54 33.433353 -112.014220 185 1139ft 0kts
17-Sep-23 19:55 33.432926 -112.014007 175 1139ft 4kts
17-Sep-23 19:56 33.432805 -112.014724 288 1139ft 1kts
17-Sep-23 19:57 33.432181 -112.015495 98 1139ft 5kts
17-Sep-23 19:58 33.432217 -112.011411 88 1139ft 11kts
17-Sep-23 19:59 33.432162 -112.007010 90 1139ft 13kts
17-Sep-23 20:00 33.432173 -112.002491 91 1139ft 13kts
17-Sep-23 20:01 33.432198 -111.997795 90 1139ft 14kts
17-Sep-23 20:02 33.432118 -111.993035 131 1139ft 9kts
17-Sep-23 20:03 33.431919 -111.992985 203 1139ft 0kts
17-Sep-23 20:04 33.431918 -111.992986 203 1139ft 0kts
17-Sep-23 20:05 33.431916 -111.992987 203 1139ft 0kts
17-Sep-23 20:06 33.431741 -111.993176 237 1139ft 10kts
17-Sep-23 20:07 33.431053 -112.001134 270 1225ft 78kts
17-Sep-23 20:08 33.434113 -112.031717 279 2237ft 95kts
17-Sep-23 20:09 33.425945 -112.063049 249 3328ft 99kts
17-Sep-23 20:10 33.416328 -112.094582 254 4314ft 103kts
17-Sep-23 20:11 33.409146 -112.134243 254 4744ft 154kts
17-Sep-23 20:12 33.393566 -112.193075 252 4562ft 193kts
17-Sep-23 20:13 33.374863 -112.255352 247 4519ft 197kts
17-Sep-23 20:14 33.351405 -112.315090 250 4493ft 201kts
17-Sep-23 20:15 33.338290 -112.379328 264 4471ft 201kts
17-Sep-23 20:16 33.348132 -112.444022 287 4550ft 198kts
17-Sep-23 20:17 33.362378 -112.507980 279 4542ft 200kts
17-Sep-23 20:18 33.365359 -112.574281 259 4465ft 201kts
17-Sep-23 20:19 33.357384 -112.640031 269 4452ft 202kts
17-Sep-23 20:20 33.379960 -112.699130 308 4589ft 195kts
17-Sep-23 20:21 33.415996 -112.750304 309 4541ft 201kts
17-Sep-23 20:22 33.449734 -112.804296 294 4514ft 202kts
17-Sep-23 20:23 33.456264 -112.870431 269 4493ft 196kts
17-Sep-23 20:24 33.462475 -112.932358 283 4764ft 181kts
17-Sep-23 20:25 33.481180 -112.986794 293 5382ft 168kts
17-Sep-23 20:26 33.499844 -113.039424 287 5865ft 178kts
17-Sep-23 20:27 33.515544 -113.095143 293 6281ft 180kts
17-Sep-23 20:28 33.541536 -113.147060 297 6442ft 187kts
17-Sep-23 20:29 33.568201 -113.201464 299 6643ft 196kts
17-Sep-23 20:30 33.593648 -113.257954 293 7364ft 189kts
17-Sep-23 20:31 33.613654 -113.321472 289 7159ft 212kts
17-Sep-23 20:32 33.641078 -113.386089 303 6661ft 213kts
17-Sep-23 20:33 33.681759 -113.437571 321 6357ft 215kts
17-Sep-23 20:34 33.725476 -113.483535 289 6188ft 211kts
17-Sep-23 20:35 33.732707 -113.549427 280 6638ft 199kts
17-Sep-23 20:36 33.740302 -113.616754 274 6698ft 202kts
17-Sep-23 20:37 33.756091 -113.681544 296 6790ft 207kts
17-Sep-23 20:38 33.779973 -113.744289 288 6839ft 209kts
17-Sep-23 20:39 33.801489 -113.809960 290 6726ft 209kts
17-Sep-23 20:40 33.821809 -113.876724 287 6562ft 207kts
17-Sep-23 20:41 33.840398 -113.942020 285 6591ft 207kts
17-Sep-23 20:42 33.856503 -114.009150 282 6551ft 210kts
17-Sep-23 20:43 33.875144 -114.075020 296 6553ft 210kts
17-Sep-23 20:44 33.920480 -114.120914 327 6310ft 206kts
17-Sep-23 20:45 33.967193 -114.160583 325 6571ft 207kts
17-Sep-23 20:46 34.017053 -114.196128 330 6651ft 210kts
17-Sep-23 20:47 34.070675 -114.222332 345 6472ft 196kts
17-Sep-23 20:48 34.118389 -114.235806 351 5985ft 181kts
17-Sep-23 20:49 34.167044 -114.240644 356 5414ft 174kts
17-Sep-23 20:50 34.212736 -114.231291 30 4382ft 161kts
17-Sep-23 20:51 34.243530 -114.197713 54 3483ft 143kts
17-Sep-23 20:52 34.262987 -114.156104 100 2353ft 119kts
17-Sep-23 20:53 34.246654 -114.164432 239 2341ft 103kts
17-Sep-23 20:54 34.228896 -114.191364 220 2352ft 102kts
17-Sep-23 20:55 34.205614 -114.210329 198 2356ft 102kts
17-Sep-23 20:56 34.177201 -114.211166 168 2380ft 99kts
17-Sep-23 20:57 34.149377 -114.207287 210 2355ft 104kts
17-Sep-23 20:58 34.138549 -114.246481 242 1696ft 128kts
17-Sep-23 20:59 34.163831 -114.248245 33 1218ft 121kts
17-Sep-23 21:00 34.191327 -114.236399 294 832ft 100kts
17-Sep-23 21:01 34.175355 -114.256696 212 787ft 95kts
17-Sep-23 21:02 34.152130 -114.270358 207 456ft 65kts
17-Sep-23 21:03 34.147354 -114.273804 12 456ft 3kts
17-Sep-23 21:04 34.150261 -114.272011 24 456ft 23kts
17-Sep-23 21:05 34.152189 -114.271012 324 456ft 11kts
17-Sep-23 21:06 34.153259 -114.271494 292 456ft 0kts
17-Sep-23 21:07 34.153259 -114.271496 292 456ft 0kts
17-Sep-23 21:08 34.153260 -114.271497 292 456ft 0kts
17-Sep-23 21:09 34.153260 -114.271497 292 456ft 0kts
17-Sep-23 21:10 34.153260 -114.271497 292 456ft 0kts
17-Sep-23 21:11 34.153260 -114.271497 292 456ft 0kts
17-Sep-23 21:12 32.658878 -114.610167 357 220ft 0kts

Navigation Log

Ident Type
Flight plan parsing failed, navigation log unavailable